Time;durP1;ratioP1;P1;durP2;ratioP2;P2;SDS_P1;SDS_P2;PMS_P1;PMS_P2;Temp;Humidity;BMP_temperature;BMP_pressure;BME280_temperature;BME280_humidity;BME280_pressure;Samples;Min_cycle;Max_cycle;Signal;HPM_P1;HPM_P2
2022/07/15 00:02:26;;;;;;;1.12;1.12;;;;;;;19.56;67.78;99881.48;1714314;82;21003;-70
2022/07/15 00:04:52;;;;;;;4.72;1.20;;;;;;;19.56;68.06;99884.18;1713263;83;22218;-70
2022/07/15 00:07:20;;;;;;;1.45;1.35;;;;;;;19.57;68.11;99885.83;1715736;83;21064;-69
2022/07/15 00:12:33;;;;;;;1.22;1.12;;;;;;;19.56;67.97;99884.18;1702457;82;20998;-69
2022/07/15 00:14:59;;;;;;;1.30;1.30;;;;;;;19.54;68.06;99886.33;1703426;83;21049;-71
2022/07/15 00:17:27;;;;;;;1.07;1.00;;;;;;;19.53;68.25;99885.23;1704621;82;21022;-69
2022/07/15 00:19:54;;;;;;;0.95;0.95;;;;;;;19.50;68.16;99884.42;1698908;82;21053;-69
2022/07/15 00:22:21;;;;;;;1.17;1.07;;;;;;;19.49;67.71;99881.42;1705594;80;21879;-69
2022/07/15 00:24:47;;;;;;;1.20;1.20;;;;;;;19.50;67.80;99881.72;1698878;82;21081;-69
2022/07/15 00:27:14;;;;;;;1.30;0.80;;;;;;;19.48;67.78;99873.86;1705952;82;21088;-69
2022/07/15 00:29:40;;;;;;;1.90;1.40;;;;;;;19.47;68.08;99872.22;1696767;82;21053;-69
2022/07/15 00:32:06;;;;;;;1.15;1.15;;;;;;;19.46;68.16;99877.36;1695470;82;21045;-70
2022/07/15 00:34:33;;;;;;;1.90;1.30;;;;;;;19.43;68.28;99871.11;1693541;82;20950;-70
2022/07/15 00:36:59;;;;;;;1.25;1.25;;;;;;;19.39;68.53;99863.25;1700119;83;21345;-69
2022/07/15 00:39:25;;;;;;;3.42;1.42;;;;;;;19.34;68.62;99866.70;1708868;83;21010;-70
2022/07/15 00:41:52;;;;;;;1.20;1.20;;;;;;;19.28;68.84;99850.18;1663475;85;21061;-69
2022/07/15 00:44:18;;;;;;;1.30;1.30;;;;;;;19.22;69.39;99855.27;1674006;85;21579;-69
2022/07/15 00:46:44;;;;;;;1.60;1.50;;;;;;;19.13;69.69;99856.27;1687432;84;21022;-70
2022/07/15 00:49:11;;;;;;;2.10;1.55;;;;;;;19.07;70.27;99860.00;1687081;84;21052;-70
2022/07/15 00:51:42;;;;;;;1.42;1.42;;;;;;;18.97;70.79;99856.67;1679386;84;21061;-71
2022/07/15 00:54:12;;;;;;;4.95;2.42;;;;;;;18.88;71.10;99851.99;1685154;84;21003;-70
2022/07/15 00:56:49;;;;;;;3.35;1.60;;;;;;;18.82;71.55;99847.08;1700083;82;20999;-69
2022/07/15 00:59:16;;;;;;;;;;;;;;;18.79;71.79;99844.30;1668619;84;20995;-70
2022/07/15 01:01:46;;;;;;;;;;;;;;;18.77;71.98;99849.69;1670015;84;20110;-69
2022/07/15 01:04:13;;;;;;;3.87;3.30;;;;;;;18.70;72.53;99844.47;1631451;86;20099;-70
2022/07/15 01:06:40;;;;;;;6.25;3.22;;;;;;;18.61;72.94;99850.05;1707480;83;20995;-69
2022/07/15 01:09:07;;;;;;;10.85;5.05;;;;;;;18.60;73.23;99845.19;1673445;83;21113;-69
2022/07/15 01:11:36;;;;;;;6.10;5.33;;;;;;;18.58;73.43;99847.33;1707966;83;21053;-69
2022/07/15 01:14:03;;;;;;;6.20;5.60;;;;;;;18.59;73.51;99846.78;1690986;83;21519;-69
2022/07/15 01:16:30;;;;;;;5.12;4.62;;;;;;;18.58;73.81;99855.97;1692642;83;20991;-69
2022/07/15 01:18:57;;;;;;;7.42;4.83;;;;;;;18.56;74.03;99854.05;1686958;83;21010;-70
2022/07/15 01:21:27;;;;;;;5.58;4.83;;;;;;;18.55;74.25;99851.87;1683622;83;21534;-70
2022/07/15 01:23:55;;;;;;;5.95;4.35;;;;;;;18.57;74.37;99848.92;1692346;83;21066;-70
2022/07/15 01:26:26;;;;;;;5.22;4.72;;;;;;;18.58;74.63;99851.38;1686287;83;21086;-70
2022/07/15 01:28:53;;;;;;;5.78;5.28;;;;;;;18.57;75.13;99852.97;1683918;83;21137;-70
2022/07/15 01:31:21;;;;;;;5.20;4.25;;;;;;;18.54;75.58;99855.66;1690888;83;21562;-69
2022/07/15 01:33:48;;;;;;;6.15;5.40;;;;;;;18.55;75.95;99856.46;1694232;82;21023;-70
2022/07/15 01:36:15;;;;;;;6.35;5.50;;;;;;;18.54;76.22;99854.30;1720036;82;21512;-70
2022/07/15 01:38:43;;;;;;;7.45;6.10;;;;;;;18.55;76.33;99848.36;1708440;82;21018;-69
2022/07/15 01:41:09;;;;;;;;;;;;;;;18.55;76.50;99851.06;1665968;83;21002;-70
2022/07/15 01:43:35;;;;;;;7.17;6.37;;;;;;;18.53;76.41;99852.66;1705196;82;20105;-70
2022/07/15 01:46:02;;;;;;;9.90;7.20;;;;;;;18.48;76.67;99854.78;1713666;82;20995;-71
2022/07/15 01:51:18;;;;;;;8.78;7.70;;;;;;;18.42;76.94;99865.23;1670014;82;21160;-70
2022/07/15 01:53:44;;;;;;;10.78;8.10;;;;;;;18.39;77.03;99864.38;1715647;82;21056;-69
2022/07/15 01:56:12;;;;;;;7.30;6.70;;;;;;;18.38;77.12;99864.63;1715662;82;21444;-70
2022/07/15 01:58:39;;;;;;;10.40;6.92;;;;;;;18.37;77.28;99862.47;1716773;82;21059;-69
2022/07/15 02:01:07;;;;;;;7.95;7.22;;;;;;;18.36;77.35;99860.83;1668878;85;21004;-70
2022/07/15 02:03:34;;;;;;;7.45;6.75;;;;;;;18.38;77.36;99853.84;1679478;84;21558;-69
2022/07/15 02:06:01;;;;;;;8.88;7.28;;;;;;;18.41;77.42;99851.99;1687557;84;21063;-69
2022/07/15 02:08:28;;;;;;;6.87;6.28;;;;;;;18.43;77.46;99860.11;1681938;84;20995;-69
2022/07/15 02:10:54;;;;;;;7.10;6.50;;;;;;;18.47;77.50;99857.72;1679863;84;21037;-69
2022/07/15 02:13:21;;;;;;;;;;;;;;;18.49;77.61;99857.74;1657750;84;21151;-70
2022/07/15 02:15:49;;;;;;;11.03;7.17;;;;;;;18.48;77.75;99854.78;1626862;85;20393;-69
2022/07/15 02:18:17;;;;;;;7.47;6.60;;;;;;;18.43;78.13;99853.36;1661904;84;21128;-69
2022/07/15 02:20:43;;;;;;;6.92;6.33;;;;;;;18.45;78.23;99852.58;1715876;82;20977;-69
2022/07/15 02:23:09;;;;;;;8.90;6.30;;;;;;;18.50;78.33;99850.48;1698150;82;21482;-68
2022/07/15 02:25:35;;;;;;;7.60;6.83;;;;;;;18.54;78.41;99844.05;1652113;85;21136;-69
2022/07/15 02:28:05;;;;;;;7.70;5.97;;;;;;;18.56;78.29;99846.77;1681779;84;21067;-69
2022/07/15 02:30:37;;;;;;;10.20;9.35;;;;;;;18.59;78.24;99850.32;1683307;84;21029;-69
2022/07/15 02:33:04;;;;;;;8.13;6.45;;;;;;;18.58;78.89;99848.67;1676561;84;21022;-71
2022/07/15 02:35:33;;;;;;;6.00;5.50;;;;;;;18.63;78.71;99847.94;1659213;84;20950;-71
2022/07/15 02:37:59;;;;;;;6.80;6.12;;;;;;;18.62;78.77;99843.59;1681009;84;21006;-69
2022/07/15 02:40:27;;;;;;;11.35;6.35;;;;;;;18.58;78.95;99842.47;1681111;84;21081;-68
2022/07/15 02:42:58;;;;;;;8.43;6.55;;;;;;;18.56;78.96;99839.21;1681390;84;21022;-69
2022/07/15 02:45:28;;;;;;;6.83;6.00;;;;;;;18.56;79.04;99833.81;1683249;84;21127;-71
2022/07/15 02:47:54;;;;;;;5.62;5.22;;;;;;;18.56;79.11;99837.31;1682538;84;21117;-70
2022/07/15 02:50:23;;;;;;;6.83;5.50;;;;;;;18.57;79.29;99834.08;1679413;84;21013;-70
2022/07/15 02:52:49;;;;;;;5.75;5.35;;;;;;;18.53;79.60;99832.41;1615122;88;21001;-70
2022/07/15 02:55:17;;;;;;;6.12;5.53;;;;;;;18.45;79.59;99824.23;1685633;83;21018;-68
2022/07/15 02:57:44;;;;;;;7.72;5.92;;;;;;;18.42;79.67;99828.81;1668650;84;21438;-70
2022/07/15 03:00:17;;;;;;;6.50;5.33;;;;;;;18.41;79.62;99832.56;1680434;82;21033;-69
2022/07/15 03:02:44;;;;;;;7.42;5.40;;;;;;;18.42;79.67;99830.16;1678524;84;21627;-71
2022/07/15 03:05:11;;;;;;;6.12;5.62;;;;;;;18.44;79.70;99832.58;1678510;84;21556;-70
2022/07/15 03:07:39;;;;;;;5.20;4.55;;;;;;;18.46;79.80;99830.47;1673473;84;21064;-70
2022/07/15 03:10:09;;;;;;;7.10;5.15;;;;;;;18.49;79.71;99829.41;1633645;86;21133;-70
2022/07/15 03:12:37;;;;;;;6.87;4.65;;;;;;;18.49;79.54;99832.11;1634124;86;21054;-70
2022/07/15 03:15:07;;;;;;;5.50;5.05;;;;;;;18.47;79.63;99826.69;1679171;84;21628;-70
2022/07/15 03:17:34;;;;;;;5.70;5.12;;;;;;;18.45;79.57;99830.18;1647638;84;21044;-70
2022/07/15 03:20:04;;;;;;;6.03;5.28;;;;;;;18.47;79.44;99837.48;1680174;84;21012;-68
2022/07/15 03:22:31;;;;;;;4.90;4.28;;;;;;;18.51;79.52;99843.20;1674278;83;21537;-70
2022/07/15 03:24:58;;;;;;;8.23;6.95;;;;;;;18.53;79.23;99847.26;1682207;83;21440;-69
2022/07/15 03:27:26;;;;;;;8.10;4.62;;;;;;;18.55;79.16;99845.66;1693975;83;21018;-70
2022/07/15 03:29:52;;;;;;;5.40;3.87;;;;;;;18.56;79.00;99846.77;1679276;83;21047;-70
2022/07/15 03:32:20;;;;;;;5.05;4.72;;;;;;;18.56;78.78;99840.56;1692162;83;21034;-70
2022/07/15 03:34:48;;;;;;;9.60;5.62;;;;;;;18.59;78.95;99844.08;1710614;82;21521;-70
2022/07/15 03:37:17;;;;;;;4.28;3.87;;;;;;;18.61;78.83;99840.08;1724699;82;21098;-69
2022/07/15 03:39:44;;;;;;;5.37;4.95;;;;;;;18.67;79.13;99839.60;1720948;82;22208;-70
2022/07/15 03:42:10;;;;;;;3.70;3.50;;;;;;;18.74;79.40;99845.62;1722494;82;21029;-69
2022/07/15 03:44:38;;;;;;;4.92;4.53;;;;;;;18.82;79.01;99851.94;1692991;83;21603;-69
2022/07/15 03:47:05;;;;;;;4.03;3.72;;;;;;;18.88;79.01;99850.64;1697937;83;21154;-68
2022/07/15 03:49:31;;;;;;;3.90;3.70;;;;;;;18.92;79.08;99863.91;1700731;83;21069;-68
2022/07/15 03:51:58;;;;;;;3.42;3.22;;;;;;;18.95;78.80;99875.02;1702145;83;20976;-68
2022/07/15 03:54:27;;;;;;;4.22;3.92;;;;;;;18.99;78.45;99905.84;1700054;83;21014;-68
2022/07/15 03:56:55;;;;;;;4.10;3.02;;;;;;;19.01;78.00;99902.34;1698091;83;20990;-69
2022/07/15 03:59:22;;;;;;;3.40;3.20;;;;;;;19.02;77.78;99886.95;1701183;83;20980;-70
2022/07/15 04:01:49;;;;;;;5.78;4.20;;;;;;;19.06;77.87;99892.95;1700606;83;20990;-70
2022/07/15 04:04:16;;;;;;;5.45;4.58;;;;;;;19.11;77.68;99886.77;1697498;84;21514;-70
2022/07/15 04:06:42;;;;;;;5.03;3.47;;;;;;;19.16;78.37;99879.27;1667956;85;21455;-69
2022/07/15 04:09:10;;;;;;;4.22;3.10;;;;;;;19.15;79.09;99879.78;1639496;86;21184;-70
2022/07/15 04:11:43;;;;;;;3.77;3.47;;;;;;;19.15;79.45;99889.23;1712082;82;21014;-68
2022/07/15 04:14:12;;;;;;;3.45;3.15;;;;;;;19.19;79.83;99884.14;1742232;82;20995;-69
2022/07/15 04:16:42;;;;;;;35.88;22.05;;;;;;;19.19;80.07;99870.12;1743122;81;21037;-69
2022/07/15 04:19:09;;;;;;;14.70;10.40;;;;;;;19.21;80.63;99868.48;1741155;82;21091;-68
2022/07/15 04:21:35;;;;;;;;;;;;;;;19.20;81.05;99867.68;1747138;81;21014;-68
2022/07/15 04:24:05;;;;;;;5.58;5.05;;;;;;;19.22;80.93;99866.88;1744863;80;20142;-69
2022/07/15 04:26:31;;;;;;;3.90;3.60;;;;;;;19.20;81.69;99854.72;1713343;81;21463;-71
2022/07/15 04:28:58;;;;;;;;;;;;;;;19.18;81.66;99840.11;1740546;81;21034;-69
2022/07/15 04:31:25;;;;;;;;;;;;;;;19.23;81.32;99821.77;1745378;82;20174;-69
2022/07/15 04:33:53;;;;;;;5.37;3.42;;;;;;;19.22;80.38;99803.39;1725755;82;20404;-68
2022/07/15 04:36:19;;;;;;;4.25;4.00;;;;;;;19.20;79.84;99816.34;1715210;82;20978;-68
2022/07/15 04:38:48;;;;;;;3.95;3.50;;;;;;;19.24;79.62;99800.44;1709118;82;21104;-73
2022/07/15 04:41:14;;;;;;;4.45;3.30;;;;;;;19.26;79.60;99790.19;1714037;82;21069;-69
2022/07/15 04:43:41;;;;;;;5.25;4.85;;;;;;;19.29;79.44;99803.70;1716575;82;21112;-71
2022/07/15 04:46:09;;;;;;;3.80;3.52;;;;;;;19.29;79.54;99808.59;1721673;82;20978;-68
2022/07/15 04:51:21;;;;;;;3.20;3.00;;;;;;;19.36;79.59;99800.24;1717428;82;21093;-69
2022/07/15 04:53:47;;;;;;;3.95;3.45;;;;;;;19.31;79.82;99799.69;1677135;84;21007;-68
2022/07/15 04:56:16;;;;;;;4.83;4.60;;;;;;;19.28;80.07;99803.44;1719294;82;20940;-68
2022/07/15 04:58:42;;;;;;;7.00;6.55;;;;;;;19.34;80.71;99810.50;1702947;82;21506;-72
2022/07/15 05:01:09;;;;;;;10.05;7.60;;;;;;;19.52;80.31;99816.85;1681600;83;21038;-70
2022/07/15 05:03:35;;;;;;;5.50;5.10;;;;;;;19.76;79.34;99820.02;1687914;84;21557;-68
2022/07/15 05:06:03;;;;;;;8.80;8.08;;;;;;;19.96;78.74;99820.64;1721327;82;21069;-74
2022/07/15 05:08:31;;;;;;;6.47;4.50;;;;;;;20.04;78.48;99819.31;1720231;82;21063;-74
2022/07/15 05:10:58;;;;;;;6.65;4.40;;;;;;;20.09;78.47;99815.84;1719045;82;21061;-70
2022/07/15 05:13:24;;;;;;;5.25;4.22;;;;;;;20.11;78.33;99820.45;1718875;82;21030;-69
2022/07/15 05:15:52;;;;;;;4.40;4.10;;;;;;;20.06;78.59;99819.90;1686507;83;21150;-71
2022/07/15 05:18:22;;;;;;;4.22;3.92;;;;;;;19.97;78.56;99818.77;1682827;83;21029;-71
2022/07/15 05:20:51;;;;;;;5.03;4.62;;;;;;;19.81;78.96;99819.21;1680394;83;21138;-70
2022/07/15 05:23:18;;;;;;;4.97;4.55;;;;;;;19.72;79.97;99808.58;1722449;82;21042;-70
2022/07/15 05:25:46;;;;;;;4.87;4.45;;;;;;;19.68;80.41;99804.77;1720775;82;21030;-71
2022/07/15 05:28:13;;;;;;;6.62;5.15;;;;;;;19.62;80.97;99787.16;1706364;82;21522;-69
2022/07/15 05:30:40;;;;;;;5.03;4.62;;;;;;;19.56;81.50;99790.92;1720517;82;22190;-70
2022/07/15 05:33:07;;;;;;;7.40;4.97;;;;;;;19.51;82.17;99798.98;1701107;82;21142;-69
2022/07/15 05:35:34;;;;;;;6.15;5.25;;;;;;;19.48;81.88;99779.26;1691200;84;21014;-72
2022/07/15 05:38:02;;;;;;;6.25;5.33;;;;;;;19.48;82.00;99776.56;1676523;84;22085;-69
2022/07/15 05:40:30;;;;;;;5.60;5.10;;;;;;;19.44;82.40;99771.41;1692167;84;21049;-69
2022/07/15 05:42:56;;;;;;;5.17;4.67;;;;;;;19.37;82.78;99768.11;1660407;86;21631;-71
2022/07/15 05:45:23;;;;;;;5.92;5.47;;;;;;;19.30;83.13;99760.76;1635158;86;21018;-70
2022/07/15 05:47:54;;;;;;;10.98;5.20;;;;;;;19.31;83.36;99755.62;1643815;86;21045;-68
2022/07/15 05:50:23;;;;;;;9.28;8.33;;;;;;;19.44;83.68;99759.24;1685427;84;21622;-69
2022/07/15 05:52:49;;;;;;;5.53;5.03;;;;;;;19.76;82.91;99759.69;1678862;84;21105;-70
2022/07/15 05:55:16;;;;;;;5.83;4.92;;;;;;;20.01;82.92;99751.69;1686350;82;21110;-71
2022/07/15 05:57:43;;;;;;;5.83;4.33;;;;;;;20.26;80.67;99750.14;1657590;84;20995;-72
2022/07/15 06:00:12;;;;;;;4.92;4.42;;;;;;;20.37;78.95;99750.44;1681338;83;21078;-74
2022/07/15 06:02:41;;;;;;;5.45;4.80;;;;;;;20.46;77.80;99752.09;1687451;83;21020;-74
2022/07/15 06:05:11;;;;;;;9.25;8.45;;;;;;;20.47;76.77;99738.81;1685053;84;21459;-73
2022/07/15 06:07:39;;;;;;;8.60;7.92;;;;;;;20.38;76.66;99739.90;1688964;83;21126;-74
2022/07/15 06:10:08;;;;;;;10.05;7.20;;;;;;;20.21;77.24;99739.30;1684046;83;21525;-74
2022/07/15 06:12:35;;;;;;;6.60;5.25;;;;;;;20.23;77.95;99735.81;1706108;82;20968;-73
2022/07/15 06:15:02;;;;;;;5.72;4.67;;;;;;;20.25;78.00;99732.81;1723738;82;21141;-72
2022/07/15 06:17:31;;;;;;;5.83;5.25;;;;;;;20.36;77.63;99727.70;1727520;82;21034;-71
2022/07/15 06:20:00;;;;;;;5.40;4.90;;;;;;;20.46;76.97;99720.95;1707120;83;21133;-72
2022/07/15 06:22:27;;;;;;;5.17;4.00;;;;;;;20.52;75.72;99724.48;1720002;82;21580;-72
2022/07/15 06:24:55;;;;;;;4.28;4.08;;;;;;;20.65;75.54;99724.53;1686707;84;21494;-73
2022/07/15 06:27:21;;;;;;;;;;;;;;;20.88;75.18;99719.11;1687809;84;21090;-71
2022/07/15 06:29:50;;;;;;;6.22;4.12;;;;;;;21.28;74.39;99717.42;1684984;84;20173;-71
2022/07/15 06:32:18;;;;;;;3.67;3.33;;;;;;;21.68;73.09;99715.70;1683973;84;20979;-74
2022/07/15 06:34:45;;;;;;;3.80;3.60;;;;;;;22.23;72.14;99713.81;1733031;81;21022;-74
2022/07/15 06:37:11;;;;;;;4.65;3.45;;;;;;;22.70;69.19;99709.70;1752243;81;21535;-73
2022/07/15 06:39:37;;;;;;;4.60;4.30;;;;;;;23.12;66.74;99700.11;1748239;81;21006;-73
2022/07/15 06:42:04;;;;;;;3.33;2.85;;;;;;;23.46;65.21;99693.77;1751762;82;21491;-72
2022/07/15 06:44:31;;;;;;;4.92;3.62;;;;;;;23.59;64.15;99691.45;1744535;81;21010;-73
2022/07/15 06:46:59;;;;;;;4.15;3.55;;;;;;;23.68;63.23;99693.79;1716836;82;21038;-74
2022/07/15 06:49:27;;;;;;;4.85;3.20;;;;;;;23.62;63.41;99686.77;1655157;85;21082;-72
2022/07/15 06:51:54;;;;;;;3.98;3.70;;;;;;;23.57;62.98;99689.58;1653953;86;21094;-73
2022/07/15 06:54:20;;;;;;;4.08;3.77;;;;;;;23.59;63.08;99683.30;1714906;83;21525;-73
2022/07/15 06:56:47;;;;;;;3.85;3.55;;;;;;;23.52;62.36;99683.08;1705738;82;21129;-74
2022/07/15 06:59:14;;;;;;;8.88;3.77;;;;;;;23.38;62.99;99678.09;1652634;85;21103;-72
2022/07/15 07:01:40;;;;;;;5.53;4.17;;;;;;;23.19;63.55;99674.48;1662382;85;21442;-72
2022/07/15 07:04:06;;;;;;;4.35;4.05;;;;;;;22.93;63.72;99674.73;1688338;83;20971;-73
2022/07/15 07:06:33;;;;;;;5.12;3.37;;;;;;;22.70;64.50;99678.47;1651170;85;21066;-73
2022/07/15 07:09:04;;;;;;;3.67;3.15;;;;;;;22.51;65.76;99681.07;1663028;85;21070;-73
2022/07/15 07:11:32;;;;;;;8.15;3.80;;;;;;;22.43;66.34;99680.30;1720887;83;20989;-73
2022/07/15 07:13:59;;;;;;;8.25;5.60;;;;;;;22.37;66.79;99681.99;1724043;82;21033;-73
2022/07/15 07:16:26;;;;;;;10.75;9.73;;;;;;;22.30;67.07;99679.06;1720445;82;21030;-73
2022/07/15 07:18:53;;;;;;;9.50;8.80;;;;;;;22.30;67.19;99676.34;1720834;82;21010;-73
2022/07/15 07:21:19;;;;;;;10.90;9.93;;;;;;;22.36;66.95;99674.41;1722832;82;21043;-73
2022/07/15 07:23:46;;;;;;;8.60;7.85;;;;;;;22.42;67.58;99670.55;1713396;82;21039;-73
2022/07/15 07:26:14;;;;;;;5.30;4.80;;;;;;;22.49;67.37;99664.25;1720669;82;21485;-73
2022/07/15 07:31:39;;;;;;;2.22;2.02;;;;;;;22.68;66.39;99660.29;1823556;75;23450;-74
2022/07/15 07:34:06;;;;;;;2.22;1.98;;;;;;;22.83;66.68;99666.66;1744305;78;21060;-72
2022/07/15 07:36:32;;;;;;;1.90;1.82;;;;;;;23.06;66.25;99661.05;1722755;81;21076;-73
2022/07/15 07:38:58;;;;;;;2.30;2.12;;;;;;;23.30;65.05;99662.39;1742229;80;21024;-74
2022/07/15 07:41:24;;;;;;;1.57;1.55;;;;;;;23.49;64.03;99656.47;1715492;81;21005;-73
2022/07/15 07:43:50;;;;;;;2.27;2.15;;;;;;;23.65;63.73;99665.23;1716125;81;21048;-73
2022/07/15 07:46:17;;;;;;;1.77;1.67;;;;;;;23.82;62.85;99664.77;1743609;80;20977;-73
2022/07/15 07:48:43;;;;;;;1.75;1.65;;;;;;;24.00;61.62;99670.55;1734683;80;21446;-72
2022/07/15 07:51:09;;;;;;;2.08;1.70;;;;;;;24.15;61.32;99672.21;1736318;80;21013;-73
2022/07/15 07:53:35;;;;;;;1.82;1.67;;;;;;;24.17;60.93;99674.91;1735591;80;20982;-73
2022/07/15 07:56:05;;;;;;;1.62;1.52;;;;;;;24.18;61.62;99671.07;1734449;80;21020;-72
2022/07/15 07:58:31;;;;;;;3.98;2.22;;;;;;;24.19;61.51;99667.26;1760763;80;21494;-72
2022/07/15 08:00:57;;;;;;;2.90;2.37;;;;;;;24.15;62.09;99673.04;1736659;80;20970;-73
2022/07/15 08:03:24;;;;;;;2.70;2.20;;;;;;;24.15;62.39;99674.41;1720648;81;21053;-71
2022/07/15 08:05:53;;;;;;;3.42;1.70;;;;;;;24.19;62.99;99682.80;1721495;81;21140;-73
2022/07/15 08:08:23;;;;;;;2.20;1.82;;;;;;;24.28;62.38;99690.00;1711822;81;21037;-73
2022/07/15 08:10:54;;;;;;;1.47;1.45;;;;;;;24.44;62.56;99687.03;1748605;80;21017;-71
2022/07/15 08:13:24;;;;;;;4.10;1.92;;;;;;;24.65;62.41;99689.70;1735939;80;20978;-72
2022/07/15 08:15:53;;;;;;;2.85;2.42;;;;;;;24.92;61.61;99696.89;1739451;80;21100;-74
2022/07/15 08:18:20;;;;;;;6.17;5.78;;;;;;;25.21;60.32;99711.08;1737546;80;21026;-73
2022/07/15 08:20:47;;;;;;;5.30;4.15;;;;;;;25.49;59.08;99707.61;1746101;80;21029;-74
2022/07/15 08:23:19;;;;;;;2.65;1.72;;;;;;;25.69;58.80;99708.53;1720107;80;21064;-73
2022/07/15 08:25:41;;;;;;;3.95;1.32;;;;;;;25.87;58.12;99706.01;1696228;81;21061;-72
2022/07/15 08:28:08;;;;;;;2.02;1.87;;;;;;;25.99;58.36;99702.20;1705138;81;21053;-73
2022/07/15 08:30:35;;;;;;;3.37;2.00;;;;;;;26.07;56.39;99702.03;1705057;81;21631;-73
2022/07/15 08:33:04;;;;;;;1.42;1.12;;;;;;;26.06;56.64;99708.06;1697921;81;21092;-75
2022/07/15 08:35:32;;;;;;;3.83;1.85;;;;;;;26.15;57.08;99717.14;1718042;81;20992;-73
2022/07/15 08:38:06;;;;;;;4.00;2.30;;;;;;;26.20;57.25;99716.21;1715744;81;21056;-72
2022/07/15 08:40:34;;;;;;;2.27;2.17;;;;;;;26.23;57.04;99718.34;1717112;81;20973;-72
2022/07/15 08:43:02;;;;;;;7.83;3.05;;;;;;;26.14;58.40;99713.35;1728549;81;21583;-72
2022/07/15 08:45:29;;;;;;;3.65;3.30;;;;;;;25.98;60.21;99725.18;1711293;81;21117;-72
2022/07/15 08:47:58;;;;;;;6.62;3.60;;;;;;;25.89;61.38;99724.25;1726802;81;21556;-73
2022/07/15 08:50:25;;;;;;;3.55;3.40;;;;;;;25.80;61.70;99719.49;1706785;81;21482;-72
2022/07/15 08:52:52;;;;;;;4.67;4.12;;;;;;;25.69;62.22;99722.18;1725208;81;21119;-72
2022/07/15 08:55:20;;;;;;;4.47;2.98;;;;;;;25.60;62.53;99727.56;1711098;81;21033;-73
2022/07/15 08:57:52;;;;;;;4.70;4.00;;;;;;;25.50;62.49;99740.02;1695535;82;21061;-72
2022/07/15 09:00:28;;;;;;;3.72;3.52;;;;;;;25.35;62.60;99747.94;1692260;82;21022;-74
2022/07/15 09:02:51;;;;;;;5.33;3.27;;;;;;;25.22;62.80;99753.62;1680590;83;21093;-74
2022/07/15 09:05:22;;;;;;;3.80;3.50;;;;;;;25.11;63.38;99752.72;1683662;83;21616;-74
2022/07/15 09:08:14;;;;;;;3.30;3.00;;;;;;;24.98;63.49;99748.31;1692922;83;21104;-73
2022/07/15 09:10:51;;;;;;;3.52;3.27;;;;;;;24.84;63.33;99746.88;1693284;83;21081;-73
2022/07/15 09:13:36;;;;;;;5.67;3.25;;;;;;;24.78;64.50;99741.27;1737930;80;20966;-74
2022/07/15 09:16:19;;;;;;;5.45;2.27;;;;;;;24.76;64.99;99733.95;1746668;80;21094;-74
2022/07/15 09:18:44;;;;;;;2.70;2.60;;;;;;;24.78;64.57;99741.83;1740105;80;21081;-73
2022/07/15 09:21:24;;;;;;;2.98;2.83;;;;;;;24.81;63.67;99748.06;1744016;80;21058;-72
2022/07/15 09:23:51;;;;;;;3.27;3.02;;;;;;;24.81;63.97;99747.50;1738450;80;20986;-79
2022/07/15 09:26:32;;;;;;;5.97;2.30;;;;;;;24.75;64.05;99745.97;1725274;80;21572;-72
2022/07/15 09:29:00;;;;;;;4.37;2.58;;;;;;;24.70;64.28;99752.86;1747786;80;21112;-73
2022/07/15 09:34:21;;;;;;;2.70;2.50;;;;;;;24.68;64.14;99753.15;1719188;80;21136;-73
2022/07/15 09:36:52;;;;;;;4.08;2.95;;;;;;;24.63;63.55;99757.31;1701353;82;21000;-73
2022/07/15 09:39:23;;;;;;;3.02;2.72;;;;;;;24.56;63.74;99758.78;1698420;82;21102;-72
2022/07/15 09:41:52;;;;;;;5.85;3.75;;;;;;;24.49;64.08;99761.31;1706229;82;21099;-72
2022/07/15 09:44:22;;;;;;;3.17;2.92;;;;;;;24.40;64.44;99765.80;1712471;79;20961;-73
2022/07/15 09:46:57;;;;;;;4.70;2.45;;;;;;;24.39;64.76;99776.98;1715560;81;21023;-72
2022/07/15 09:49:32;;;;;;;2.92;2.83;;;;;;;24.38;64.32;99776.18;1723851;81;21004;-74
2022/07/15 09:52:07;;;;;;;3.72;3.08;;;;;;;24.32;63.83;99781.98;1717315;81;21587;-73
2022/07/15 09:54:39;;;;;;;2.58;2.30;;;;;;;24.23;64.18;99773.67;1705139;81;21537;-74
2022/07/15 09:57:15;;;;;;;3.00;2.90;;;;;;;24.20;64.38;99775.05;1711796;81;21082;-73
2022/07/15 09:59:44;;;;;;;3.65;2.40;;;;;;;24.16;64.65;99775.38;1703044;81;21195;-73
2022/07/15 10:02:14;;;;;;;2.40;2.25;;;;;;;24.13;64.78;99786.05;1708095;81;20971;-74
2022/07/15 10:04:43;;;;;;;2.75;2.50;;;;;;;24.13;64.18;99790.95;1704881;81;21573;-74
2022/07/15 10:07:12;;;;;;;2.70;2.35;;;;;;;24.13;64.13;99788.23;1709449;81;21094;-73
2022/07/15 10:09:41;;;;;;;3.35;3.08;;;;;;;24.12;64.46;99792.05;1708614;81;21107;-74
2022/07/15 10:12:19;;;;;;;4.20;3.15;;;;;;;24.08;65.09;99796.46;1735810;80;21591;-73
2022/07/15 10:15:12;;;;;;;4.17;3.77;;;;;;;24.05;65.97;99795.67;1732260;80;21084;-73
2022/07/15 10:18:02;;;;;;;3.98;3.77;;;;;;;23.97;66.93;99797.69;1731374;80;21105;-73
2022/07/15 10:20:57;;;;;;;7.05;6.47;;;;;;;23.80;67.15;99809.84;1745278;80;21046;-72
2022/07/15 10:23:36;;;;;;;4.47;4.10;;;;;;;23.70;68.28;99807.22;1712415;80;21037;-73
2022/07/15 10:26:30;;;;;;;4.65;4.35;;;;;;;23.51;68.49;99811.22;1681575;83;21040;-74
2022/07/15 10:29:06;;;;;;;4.85;4.33;;;;;;;23.38;69.65;99816.78;1694811;83;21076;-75
2022/07/15 10:31:35;;;;;;;4.97;4.75;;;;;;;23.30;70.20;99824.17;1692058;83;21069;-73
2022/07/15 10:34:13;;;;;;;8.18;7.58;;;;;;;23.19;70.79;99834.88;1699423;82;21569;-71
2022/07/15 10:36:51;;;;;;;4.67;4.37;;;;;;;22.74;71.61;99790.89;1684511;83;21133;-72
2022/07/15 10:39:20;;;;;;;5.50;5.03;;;;;;;22.97;72.05;99851.61;1695789;83;21117;-72
2022/07/15 10:41:56;;;;;;;6.65;6.25;;;;;;;22.84;72.47;99853.05;1697848;83;21141;-72
2022/07/15 10:44:25;;;;;;;6.87;6.37;;;;;;;22.73;73.16;99862.64;1697807;82;21536;-74
2022/07/15 10:47:15;;;;;;;5.00;4.70;;;;;;;22.63;73.69;99875.45;1724391;81;21089;-74
2022/07/15 10:49:46;;;;;;;5.20;4.90;;;;;;;22.42;73.87;99878.83;1662178;84;21438;-73
2022/07/15 10:52:25;;;;;;;5.12;4.78;;;;;;;22.12;73.61;99886.75;1672998;84;21193;-73
2022/07/15 10:55:04;;;;;;;6.40;5.70;;;;;;;21.84;73.72;99892.80;1693274;82;21037;-71
2022/07/15 10:57:53;;;;;;;5.50;4.70;;;;;;;21.43;74.37;99899.02;1727200;81;21021;-73
2022/07/15 11:00:27;;;;;;;4.47;4.28;;;;;;;21.14;77.14;99898.20;1729690;81;21018;-72
2022/07/15 11:03:04;;;;;;;5.20;4.83;;;;;;;20.90;78.54;99895.17;1735557;81;21017;-73
2022/07/15 11:05:34;;;;;;;4.92;4.58;;;;;;;20.75;81.09;99910.84;1722624;81;21661;-72
2022/07/15 11:08:00;;;;;;;5.45;5.05;;;;;;;20.60;80.09;99919.72;1665944;84;21519;-73
2022/07/15 11:10:27;;;;;;;4.28;4.08;;;;;;;20.45;82.73;99926.95;1642412;85;21079;-71
2022/07/15 11:12:59;;;;;;;4.80;4.55;;;;;;;20.31;82.26;99932.84;1656721;82;21504;-72
2022/07/15 11:15:24;;;;;;;5.60;5.17;;;;;;;20.19;82.74;99938.98;1701341;83;21125;-72
2022/07/15 11:17:54;;;;;;;4.95;4.62;;;;;;;20.02;83.13;99943.20;1698556;83;21675;-72
2022/07/15 11:20:25;;;;;;;5.78;5.33;;;;;;;19.83;83.16;99941.45;1686328;83;20999;-73
2022/07/15 11:22:55;;;;;;;4.90;4.47;;;;;;;19.63;84.64;99937.50;1683908;83;20938;-72
2022/07/15 11:25:33;;;;;;;5.40;4.90;;;;;;;19.54;86.36;99940.39;1685182;83;20970;-71
2022/07/15 11:28:05;;;;;;;5.40;5.08;;;;;;;19.47;86.44;99935.73;1678353;83;21037;-70
2022/07/15 11:30:40;;;;;;;5.42;5.12;;;;;;;19.41;86.14;99925.95;1687086;83;21073;-72
2022/07/15 11:33:14;;;;;;;5.33;4.90;;;;;;;19.32;87.65;99920.73;1685406;83;21073;-71
2022/07/15 11:35:51;;;;;;;5.20;4.78;;;;;;;19.23;87.08;99913.11;1693321;83;21068;-70
2022/07/15 11:38:22;;;;;;;5.03;4.72;;;;;;;19.11;87.35;99909.73;1693900;83;21108;-72
2022/07/15 11:46:26;;;;;;;;;;;;;;;18.87;91.52;99961.86;1674385;83;21057;-72
2022/07/15 11:48:52;;;;;;;;;;;;;;;18.88;91.28;99958.66;1658532;84;20484;-71
2022/07/15 11:51:23;;;;;;;4.58;4.37;;;;;;;18.82;91.79;99963.98;1662382;84;20233;-72
2022/07/15 11:53:50;;;;;;;4.92;4.62;;;;;;;18.78;92.37;99969.58;1663252;84;21039;-72
2022/07/15 11:56:16;;;;;;;;;;;;;;;18.79;91.66;99978.48;1658365;84;21211;-73
2022/07/15 11:58:46;;;;;;;7.08;3.40;;;;;;;18.77;89.66;99981.44;1655539;84;20477;-71
2022/07/15 12:01:18;;;;;;;3.47;3.12;;;;;;;18.68;89.31;99985.13;1630262;85;21050;-72
2022/07/15 12:03:50;;;;;;;2.92;2.83;;;;;;;18.61;88.66;99987.70;1634788;85;21681;-72
2022/07/15 12:06:29;;;;;;;3.37;3.17;;;;;;;18.56;88.51;99989.81;1629615;85;22262;-71